Accueil
METAR-TAF:

METAR-TAF

Aéroports :

Augsbourg, Allemagne

latitude: 48-26N, longitude: 010-56E, altitude: 461 m

Observation

Le bulletin a été fait il y a 22 minutes, à 09:50 UTC
Vent 11 kt de nord-est
Température -4°C
Humidité 68%
Pression 1018 hPa
Visibilité 10 km ou plus
pas de nuages en-dessous de 1500 mètres et pas de cumulonimbus.

METAR: EDMA 240950Z 05011KT CAVOK M04/M09 Q1018

Heure: 11:12 (10:12 UTC)

Prévision

Le bulletin a été fait il y a 2 heures et 12 minutes, à 08:00 UTC
Prévision valable du 24 à 09 UTC au 24 à 18 UTC
Vent 15 kt de est/nord-est avec des rafales jusqu'à 25 kt
Visibilité 10 km ou plus
Quelques nuages à une hauteur de 2000 ft

TAF: EDMA 240800Z 2409/2418 07015G25KT 9999 FEW020

Observations et prévisions météorologiques de plus de 4000 aéroports (messages METAR et TAF).

Les stations disponibles sont représentées par des disques jaunes et rouges sur la carte.

Passer la souris dessus pour voir le nom de la station.

Cliquer dessus pour voir les observations et prévisions météorologiques.

Pour changer de carte: cliquez sur les boutons verts avec une croix noire pour zoomer, sur le bouton vert avec un tiret pour effectuer un zoom arrière, ou sur les flèches vertes pour les cartes adjacentes.


METAR-TAF: